createdAt,value
2022-10-14T00:00:38.403Z,82.6
2022-10-14T00:01:41.750Z,82.7
2022-10-14T00:02:43.841Z,82.8
2022-10-14T00:03:46.739Z,82.8
2022-10-14T00:04:49.792Z,82.8
2022-10-14T00:05:52.570Z,82.8
2022-10-14T00:06:55.290Z,82.8
2022-10-14T00:07:58.703Z,82.8
2022-10-14T00:09:02.772Z,82.8
2022-10-14T00:10:05.692Z,82.9
2022-10-14T00:11:09.429Z,82.9
2022-10-14T00:12:12.412Z,82.8
2022-10-14T00:13:15.556Z,82.8
2022-10-14T00:14:18.723Z,82.8
2022-10-14T00:15:21.710Z,82.8
2022-10-14T00:16:24.926Z,82.8
2022-10-14T00:17:27.991Z,82.8
2022-10-14T00:18:31.188Z,82.7
2022-10-14T00:19:34.357Z,82.7
2022-10-14T00:20:37.802Z,82.7
2022-10-14T00:21:40.789Z,82.8
2022-10-14T00:22:43.967Z,82.8
2022-10-14T00:23:46.846Z,82.8
2022-10-14T00:24:50.899Z,82.8
2022-10-14T00:25:53.763Z,82.8
2022-10-14T00:26:57.117Z,82.9
2022-10-14T00:28:00.111Z,82.9
2022-10-14T00:29:03.188Z,82.9
2022-10-14T00:30:05.978Z,82.9
2022-10-14T00:31:08.767Z,82.8
2022-10-14T00:32:12.197Z,82.9
2022-10-14T00:33:15.059Z,82.9
2022-10-14T00:34:17.770Z,82.9
2022-10-14T00:35:20.359Z,82.8
2022-10-14T00:36:24.066Z,82.8
2022-10-14T00:37:27.132Z,82.8
2022-10-14T00:38:29.671Z,82.8
2022-10-14T00:39:32.463Z,82.8
2022-10-14T00:40:36.291Z,82.7
2022-10-14T00:41:39.944Z,82.8
2022-10-14T00:42:43.739Z,82.8
2022-10-14T00:43:47.170Z,82.8
2022-10-14T00:44:49.884Z,82.8
2022-10-14T00:45:52.585Z,82.9
2022-10-14T00:46:55.383Z,83
2022-10-14T00:47:58.327Z,83.1
2022-10-14T00:49:00.571Z,83.2
2022-10-14T00:50:03.437Z,83.2
2022-10-14T00:51:06.677Z,83.2
2022-10-14T00:52:10.688Z,83.2
2022-10-14T00:53:13.829Z,83.2
2022-10-14T00:54:16.272Z,83.2
2022-10-14T00:55:19.814Z,83.3
2022-10-14T00:56:23.313Z,83.3
2022-10-14T00:57:26.031Z,83.3
2022-10-14T00:58:28.903Z,83.4
2022-10-14T00:59:31.184Z,83.4
2022-10-14T01:00:34.174Z,83.5
2022-10-14T01:01:37.376Z,83.5
2022-10-14T01:02:40.270Z,83.7
2022-10-14T01:03:43.266Z,83.7
2022-10-14T01:04:46.095Z,83.7
2022-10-14T01:05:48.051Z,83.8
2022-10-14T01:06:51.140Z,83.9
2022-10-14T01:07:54.284Z,83.8
2022-10-14T01:08:57.628Z,83.8
2022-10-14T01:10:00.625Z,83.8
2022-10-14T01:11:04.153Z,83.8
2022-10-14T01:12:38.078Z,83.7
2022-10-14T01:13:41.446Z,83.7
2022-10-14T01:14:44.512Z,83.7
2022-10-14T01:15:47.034Z,83.8
2022-10-14T01:16:49.615Z,83.8
2022-10-14T01:17:53.357Z,83.7
2022-10-14T01:18:56.807Z,83.7
2022-10-14T01:19:59.878Z,83.7
2022-10-14T01:21:03.228Z,83.7
2022-10-14T01:22:06.095Z,83.7
2022-10-14T01:23:10.102Z,83.8
2022-10-14T01:24:13.271Z,83.8
2022-10-14T01:25:16.423Z,84
2022-10-14T01:26:19.981Z,84
2022-10-14T01:27:23.798Z,84
2022-10-14T01:28:26.792Z,84.1
2022-10-14T01:29:30.302Z,84.2
2022-10-14T01:30:33.164Z,84.3
2022-10-14T01:31:35.922Z,84.4
2022-10-14T01:32:39.197Z,84.4
2022-10-14T01:33:41.803Z,84.5
2022-10-14T01:34:44.312Z,84.6
2022-10-14T01:35:47.570Z,84.6
2022-10-14T01:36:50.912Z,84.7
2022-10-14T01:37:54.347Z,84.9
2022-10-14T01:38:57.541Z,84.9
2022-10-14T01:40:00.150Z,84.8
2022-10-14T01:41:03.891Z,85
2022-10-14T01:42:07.979Z,85
2022-10-14T01:43:12.020Z,85
2022-10-14T01:44:15.001Z,85
2022-10-14T01:45:18.412Z,85
2022-10-14T01:46:21.557Z,85
2022-10-14T01:47:24.985Z,85
2022-10-14T01:48:28.184Z,85.1
2022-10-14T01:49:31.538Z,85.1
2022-10-14T01:50:34.971Z,85.1
2022-10-14T01:51:38.521Z,85.1
2022-10-14T01:52:40.667Z,85.2
2022-10-14T01:53:43.610Z,85.2
2022-10-14T01:54:46.195Z,85.3
2022-10-14T01:55:49.182Z,85.3
2022-10-14T01:56:52.174Z,85.3
2022-10-14T01:57:55.607Z,85.2
2022-10-14T01:58:59.657Z,85.3
2022-10-14T02:00:02.798Z,85.3
2022-10-14T02:01:05.588Z,85.3
2022-10-14T02:02:08.345Z,85.3
2022-10-14T02:03:11.893Z,85.4
2022-10-14T02:04:15.112Z,85.4
2022-10-14T02:05:17.829Z,85.5
2022-10-14T02:06:20.815Z,85.4
2022-10-14T02:07:23.621Z,85.3
2022-10-14T02:08:27.272Z,85.2
2022-10-14T02:09:30.658Z,85.2
2022-10-14T02:10:33.473Z,85.2
2022-10-14T02:11:36.634Z,85.4
2022-10-14T02:12:39.642Z,85.4
2022-10-14T02:13:42.515Z,85.4
2022-10-14T02:14:46.299Z,85.4
2022-10-14T02:15:49.464Z,85.4
2022-10-14T02:16:52.607Z,85.4
2022-10-14T02:17:55.682Z,85.4
2022-10-14T02:18:58.781Z,85.4
2022-10-14T02:20:02.102Z,85.5
2022-10-14T02:21:05.527Z,85.4
2022-10-14T02:22:08.682Z,85.5
2022-10-14T02:23:12.039Z,85.5
2022-10-14T02:24:15.107Z,85.5
2022-10-14T02:25:18.292Z,85.6
2022-10-14T02:26:21.740Z,85.5
2022-10-14T02:27:24.811Z,85.5
2022-10-14T02:28:28.161Z,85.5
2022-10-14T02:29:31.538Z,85.5
2022-10-14T02:30:35.555Z,85.4
2022-10-14T02:31:38.225Z,85.4
2022-10-14T02:32:40.462Z,85.5
2022-10-14T02:33:42.460Z,85.6
2022-10-14T02:34:44.974Z,85.6
2022-10-14T02:35:48.131Z,85.5
2022-10-14T02:36:51.579Z,85.5
2022-10-14T02:37:54.173Z,85.6
2022-10-14T02:38:56.989Z,85.6
2022-10-14T02:39:59.703Z,85.7
2022-10-14T02:41:02.864Z,85.7
2022-10-14T02:42:05.732Z,85.7
2022-10-14T02:43:09.193Z,85.5
2022-10-14T02:44:11.767Z,85.4
2022-10-14T02:45:15.304Z,85.4
2022-10-14T02:46:19.102Z,85.4
2022-10-14T02:47:22.081Z,85.5
2022-10-14T02:48:25.506Z,85.5
2022-10-14T02:49:28.655Z,85.4
2022-10-14T02:50:32.037Z,85.5
2022-10-14T02:51:34.884Z,85.5
2022-10-14T02:52:38.418Z,85.4
2022-10-14T02:53:41.215Z,85.5
2022-10-14T02:54:44.586Z,85.5
2022-10-14T02:55:48.021Z,85.6
2022-10-14T02:56:51.027Z,85.6
2022-10-14T02:57:54.251Z,85.7
2022-10-14T02:58:57.589Z,85.7
2022-10-14T03:00:01.054Z,85.7
2022-10-14T03:01:04.737Z,85.9
2022-10-14T03:02:08.922Z,85.9
2022-10-14T03:03:12.071Z,85.9
2022-10-14T03:04:15.062Z,85.9
2022-10-14T03:05:17.663Z,86
2022-10-14T03:06:20.373Z,86
2022-10-14T03:07:23.463Z,86.1
2022-10-14T03:08:25.902Z,86.1
2022-10-14T03:09:29.552Z,86.2
2022-10-14T03:10:32.898Z,86.2
2022-10-14T03:11:35.339Z,86.3
2022-10-14T03:12:37.853Z,86.3
2022-10-14T03:13:41.328Z,86.4
2022-10-14T03:14:44.203Z,86.4
2022-10-14T03:15:47.373Z,86.4
2022-10-14T03:16:50.615Z,86.4
2022-10-14T03:17:54.182Z,86.4
2022-10-14T03:18:56.983Z,86.6
2022-10-14T03:19:59.955Z,86.6
2022-10-14T03:21:03.426Z,86.6
2022-10-14T03:22:06.296Z,86.6
2022-10-14T03:23:09.363Z,86.6
2022-10-14T03:24:12.160Z,86.7
2022-10-14T03:25:14.592Z,86.8
2022-10-14T03:26:17.475Z,86.7
2022-10-14T03:27:19.990Z,86.7
2022-10-14T03:28:23.394Z,86.7
2022-10-14T03:29:26.927Z,86.7
2022-10-14T03:30:30.023Z,86.7
2022-10-14T03:31:33.092Z,86.8
2022-10-14T03:32:36.271Z,86.8
2022-10-14T03:33:40.061Z,86.9
2022-10-14T03:34:43.517Z,87
2022-10-14T03:35:45.957Z,87
2022-10-14T03:36:49.386Z,87
2022-10-14T03:37:52.435Z,87
2022-10-14T03:38:55.782Z,87
2022-10-14T03:39:58.835Z,87
2022-10-14T03:41:01.689Z,86.9
2022-10-14T03:42:04.562Z,87
2022-10-14T03:43:08.010Z,87
2022-10-14T03:44:11.244Z,87.1
2022-10-14T03:45:14.424Z,87
2022-10-14T03:46:16.863Z,87
2022-10-14T03:47:20.370Z,87
2022-10-14T03:48:23.806Z,87.1
2022-10-14T03:49:27.639Z,87.1
2022-10-14T03:50:30.686Z,87.2
2022-10-14T03:51:33.299Z,87.2
2022-10-14T03:52:36.390Z,87.2
2022-10-14T03:53:39.738Z,87.1
2022-10-14T03:54:42.705Z,87.1
2022-10-14T03:55:45.851Z,87
2022-10-14T03:56:48.765Z,87
2022-10-14T03:57:51.559Z,87
2022-10-14T03:58:54.616Z,86.9
2022-10-14T03:59:56.853Z,86.8
2022-10-14T04:01:00.073Z,86.8
2022-10-14T04:02:02.471Z,86.9
2022-10-14T04:03:05.406Z,86.8
2022-10-14T04:04:08.550Z,86.8
2022-10-14T04:05:12.405Z,86.8
2022-10-14T04:06:15.113Z,86.9
2022-10-14T04:07:18.487Z,86.8
2022-10-14T04:08:21.479Z,86.9
2022-10-14T04:09:24.631Z,86.8
2022-10-14T04:10:27.706Z,86.8
2022-10-14T04:11:31.212Z,86.8
2022-10-14T04:12:34.664Z,86.8
2022-10-14T04:13:37.109Z,86.9
2022-10-14T04:14:39.996Z,86.9
2022-10-14T04:15:43.278Z,87
2022-10-14T04:16:51.248Z,87.1
2022-10-14T04:17:54.147Z,87.2
2022-10-14T04:18:56.667Z,87.1
2022-10-14T04:20:00.468Z,87.2
2022-10-14T04:21:04.310Z,87.2
2022-10-14T04:22:07.471Z,87.2
2022-10-14T04:23:10.280Z,87.2
2022-10-14T04:24:13.137Z,87.1
2022-10-14T04:25:16.216Z,87.2
2022-10-14T04:26:19.284Z,87.3
2022-10-14T04:27:22.356Z,87.3
2022-10-14T04:28:25.430Z,87.3
2022-10-14T04:29:28.748Z,87.4
2022-10-14T04:30:32.445Z,87.4
2022-10-14T04:31:34.889Z,87.5
2022-10-14T04:32:37.960Z,87.7
2022-10-14T04:33:40.203Z,87.7
2022-10-14T04:34:43.080Z,87.7
2022-10-14T04:35:46.649Z,87.7
2022-10-14T04:36:50.156Z,87.7
2022-10-14T04:37:53.814Z,87.8
2022-10-14T04:38:56.403Z,87.8
2022-10-14T04:39:59.747Z,87.8
2022-10-14T04:41:02.543Z,87.9
2022-10-14T04:42:05.054Z,87.9
2022-10-14T04:43:08.213Z,87.9
2022-10-14T04:44:11.290Z,87.9
2022-10-14T04:45:14.566Z,87.8
2022-10-14T04:46:18.013Z,87.9
2022-10-14T04:47:20.832Z,87.8
2022-10-14T04:48:24.611Z,87.8
2022-10-14T04:49:27.970Z,87.8
2022-10-14T04:50:30.833Z,87.8
2022-10-14T04:51:34.526Z,87.8
2022-10-14T04:52:38.317Z,87.7
2022-10-14T04:53:41.098Z,87.7
2022-10-14T04:54:44.538Z,87.7
2022-10-14T04:55:47.957Z,87.8
2022-10-14T04:56:51.145Z,87.7
2022-10-14T04:57:54.043Z,87.8
2022-10-14T04:58:57.055Z,87.8
2022-10-14T05:00:00.227Z,87.7
2022-10-14T05:01:03.580Z,87.7
2022-10-14T05:02:06.652Z,87.7
2022-10-14T05:03:10.209Z,87.7
2022-10-14T05:04:13.287Z,87.7
2022-10-14T05:05:16.449Z,87.7
2022-10-14T05:06:19.511Z,87.6
2022-10-14T05:07:23.041Z,87.6
2022-10-14T05:08:26.917Z,87.6
2022-10-14T05:09:30.357Z,87.6
2022-10-14T05:10:33.583Z,87.6
2022-10-14T05:11:36.862Z,87.7
2022-10-14T05:12:39.663Z,87.6
2022-10-14T05:13:42.329Z,87.6
2022-10-14T05:14:45.515Z,87.6
2022-10-14T05:15:48.658Z,87.6
2022-10-14T05:16:52.080Z,87.6
2022-10-14T05:17:55.586Z,87.6
2022-10-14T05:18:59.314Z,87.6
2022-10-14T05:20:01.838Z,87.6
2022-10-14T05:21:04.731Z,87.5
2022-10-14T05:22:07.816Z,87.6
2022-10-14T05:23:11.424Z,87.5
2022-10-14T05:24:15.190Z,87.5
2022-10-14T05:25:18.341Z,87.5
2022-10-14T05:26:21.459Z,87.6
2022-10-14T05:27:25.159Z,87.5
2022-10-14T05:28:28.556Z,87.5
2022-10-14T05:29:32.416Z,87.5
2022-10-14T05:30:35.909Z,87.5
2022-10-14T05:31:38.783Z,87.4
2022-10-14T05:32:41.947Z,87.4
2022-10-14T05:33:44.555Z,87.4
2022-10-14T05:34:47.558Z,87.3
2022-10-14T05:36:05.528Z,87.2
2022-10-14T05:37:09.176Z,87.2
2022-10-14T05:38:11.688Z,87.2
2022-10-14T05:39:15.527Z,87.1
2022-10-14T05:40:19.370Z,87.1
2022-10-14T05:41:22.833Z,87.1
2022-10-14T05:42:26.580Z,87.1
2022-10-14T05:43:33.881Z,87.1
2022-10-14T05:44:37.123Z,87.1
2022-10-14T05:45:40.744Z,87.1
2022-10-14T05:46:44.759Z,87
2022-10-14T05:47:47.470Z,87
2022-10-14T05:48:50.291Z,87.1
2022-10-14T05:49:53.153Z,87
2022-10-14T05:50:56.055Z,86.9
2022-10-14T05:51:59.204Z,86.9
2022-10-14T05:53:02.440Z,86.9
2022-10-14T05:54:06.450Z,86.9
2022-10-14T05:55:09.704Z,86.9
2022-10-14T05:56:13.173Z,86.8
2022-10-14T05:57:16.046Z,86.9
2022-10-14T05:58:20.054Z,86.8
2022-10-14T05:59:22.903Z,86.8
2022-10-14T06:00:27.159Z,86.8
2022-10-14T06:01:30.475Z,86.8
2022-10-14T06:02:33.434Z,86.8
2022-10-14T06:03:36.573Z,86.7
2022-10-14T06:04:39.096Z,86.7
2022-10-14T06:05:42.167Z,86.7
2022-10-14T06:06:45.817Z,86.7
2022-10-14T06:07:49.339Z,86.8
2022-10-14T06:08:52.205Z,86.8
2022-10-14T06:09:55.271Z,86.9
2022-10-14T06:10:58.714Z,87
2022-10-14T06:12:02.322Z,86.9
2022-10-14T06:13:04.987Z,86.9
2022-10-14T06:14:07.810Z,86.9
2022-10-14T06:15:10.966Z,86.9
2022-10-14T06:16:14.035Z,86.9
2022-10-14T06:17:19.017Z,86.9
2022-10-14T06:18:21.488Z,86.9
2022-10-14T06:19:24.898Z,86.9
2022-10-14T06:20:28.728Z,86.9
2022-10-14T06:21:31.169Z,87
2022-10-14T06:22:34.603Z,87.1
2022-10-14T06:23:37.887Z,87.1
2022-10-14T06:24:41.037Z,87.2
2022-10-14T06:25:44.419Z,87.2
2022-10-14T06:26:47.992Z,87.2
2022-10-14T06:27:52.137Z,87.2
2022-10-14T06:28:55.870Z,87.3
2022-10-14T06:29:59.083Z,87.4
2022-10-14T06:31:01.961Z,87.3
2022-10-14T06:32:05.116Z,87.3
2022-10-14T06:33:08.468Z,87.3
2022-10-14T06:34:11.532Z,87.4
2022-10-14T06:35:14.901Z,87.5
2022-10-14T06:36:17.536Z,87.5
2022-10-14T06:37:20.130Z,87.5
2022-10-14T06:38:23.864Z,87.7
2022-10-14T06:39:27.392Z,87.8
2022-10-14T06:40:30.507Z,87.9
2022-10-14T06:41:33.761Z,88
2022-10-14T06:42:37.544Z,88.2
2022-10-14T06:43:41.321Z,88.3
2022-10-14T06:44:44.164Z,88.3
2022-10-14T06:45:47.430Z,88.3
2022-10-14T06:46:50.615Z,88.4
2022-10-14T06:47:53.197Z,88.3
2022-10-14T06:48:56.453Z,88.3
2022-10-14T06:49:59.357Z,88.2
2022-10-14T06:51:02.526Z,88.2
2022-10-14T06:52:05.964Z,88.3
2022-10-14T06:53:09.336Z,88.4
2022-10-14T06:54:12.489Z,88.3
2022-10-14T06:55:15.833Z,88.3
2022-10-14T06:56:18.918Z,88.2
2022-10-14T06:57:22.054Z,88.2
2022-10-14T06:58:25.506Z,88.2
2022-10-14T06:59:29.632Z,88.1
2022-10-14T07:00:31.870Z,88.1
2022-10-14T07:01:35.796Z,88.1
2022-10-14T07:02:39.212Z,88.1
2022-10-14T07:03:42.323Z,88.2
2022-10-14T07:04:45.309Z,88.3
2022-10-14T07:05:48.568Z,88.2
2022-10-14T07:06:51.640Z,88.2
2022-10-14T07:07:54.977Z,88.3
2022-10-14T07:08:57.854Z,88.2
2022-10-14T07:10:01.123Z,88.2
2022-10-14T07:11:03.351Z,88.2
2022-10-14T07:12:06.135Z,88.2
2022-10-14T07:13:08.947Z,88.3
2022-10-14T07:14:12.744Z,88.2
2022-10-14T07:15:16.544Z,88.2
2022-10-14T07:16:19.334Z,88.1
2022-10-14T07:17:24.446Z,88.1
2022-10-14T07:18:27.805Z,88
2022-10-14T07:19:30.807Z,88.1
2022-10-14T07:20:33.393Z,87.9
2022-10-14T07:21:36.745Z,88
2022-10-14T07:22:40.342Z,88
2022-10-14T07:23:43.062Z,88
2022-10-14T07:24:45.798Z,88.1
2022-10-14T07:25:49.179Z,88.1
2022-10-14T07:26:52.779Z,88
2022-10-14T07:27:56.565Z,87.9
2022-10-14T07:29:00.215Z,87.9
2022-10-14T07:30:03.751Z,87.8
2022-10-14T07:31:07.833Z,87.9
2022-10-14T07:32:11.290Z,87.9
2022-10-14T07:33:13.803Z,87.9
2022-10-14T07:34:17.346Z,87.7
2022-10-14T07:35:20.502Z,87.7
2022-10-14T07:36:24.115Z,87.7
2022-10-14T07:37:26.940Z,87.8
2022-10-14T07:38:30.632Z,87.8
2022-10-14T07:39:33.156Z,87.8
2022-10-14T07:40:36.184Z,87.8
2022-10-14T07:41:39.349Z,87.8
2022-10-14T07:42:42.669Z,87.8
2022-10-14T07:43:45.733Z,87.8
2022-10-14T07:44:48.696Z,87.8
2022-10-14T07:45:52.487Z,87.7
2022-10-14T07:46:56.355Z,87.7
2022-10-14T07:47:59.342Z,87.7
2022-10-14T07:49:02.490Z,87.7
2022-10-14T07:50:06.221Z,87.7
2022-10-14T07:51:09.493Z,87.7
2022-10-14T07:52:12.200Z,87.7
2022-10-14T07:53:15.538Z,87.7
2022-10-14T07:54:18.691Z,87.7
2022-10-14T07:55:21.571Z,87.6
2022-10-14T07:56:24.423Z,87.7
2022-10-14T07:57:27.694Z,87.8
2022-10-14T07:58:30.847Z,87.6
2022-10-14T07:59:34.183Z,87.6
2022-10-14T08:00:37.316Z,87.6
2022-10-14T08:01:41.379Z,87.7
2022-10-14T08:02:45.698Z,87.8
2022-10-14T08:03:48.837Z,87.9
2022-10-14T08:04:51.361Z,87.9
2022-10-14T08:05:54.389Z,87.9
2022-10-14T08:06:57.000Z,87.9
2022-10-14T08:08:00.718Z,87.8
2022-10-14T08:09:03.661Z,87.9
2022-10-14T08:10:06.936Z,88
2022-10-14T08:11:09.366Z,88
2022-10-14T08:12:12.759Z,87.9
2022-10-14T08:13:15.644Z,87.8
2022-10-14T08:14:19.165Z,87.8
2022-10-14T08:15:22.349Z,87.8
2022-10-14T08:16:25.708Z,87.9
2022-10-14T08:17:28.605Z,87.9
2022-10-14T08:18:32.659Z,87.9
2022-10-14T08:19:35.475Z,87.9
2022-10-14T08:20:38.385Z,88
2022-10-14T08:21:42.144Z,88
2022-10-14T08:22:44.760Z,88
2022-10-14T08:23:47.601Z,88.1
2022-10-14T08:24:50.392Z,88.1
2022-10-14T08:25:53.827Z,88.2
2022-10-14T08:26:56.155Z,88.2
2022-10-14T08:27:58.792Z,88.2
2022-10-14T08:29:02.231Z,88.2
2022-10-14T08:30:12.370Z,88.4
2022-10-14T08:31:15.471Z,88.4
2022-10-14T08:32:18.474Z,88.4
2022-10-14T08:33:22.779Z,88.6
2022-10-14T08:34:26.342Z,88.6
2022-10-14T08:35:29.795Z,88.6
2022-10-14T08:36:32.326Z,88.6
2022-10-14T08:37:35.481Z,88.6
2022-10-14T08:38:38.373Z,88.6
2022-10-14T08:39:41.906Z,88.7
2022-10-14T08:40:45.251Z,88.6
2022-10-14T08:41:47.850Z,88.7
2022-10-14T08:42:50.444Z,88.8
2022-10-14T08:43:54.176Z,88.8
2022-10-14T08:44:57.373Z,88.8
2022-10-14T08:46:00.750Z,88.8
2022-10-14T08:47:03.638Z,88.8
2022-10-14T08:48:07.080Z,88.8
2022-10-14T08:49:10.201Z,88.8
2022-10-14T08:50:14.305Z,88.8
2022-10-14T08:51:17.472Z,88.9
2022-10-14T08:52:22.385Z,88.8
2022-10-14T08:53:26.503Z,88.7
2022-10-14T08:54:29.603Z,88.7
2022-10-14T08:55:32.542Z,88.7
2022-10-14T08:56:36.271Z,88.8
2022-10-14T08:57:39.152Z,88.8
2022-10-14T08:58:41.949Z,88.8
2022-10-14T08:59:44.753Z,88.7
2022-10-14T09:00:48.113Z,88.8
2022-10-14T09:01:51.565Z,88.8
2022-10-14T09:02:55.283Z,88.8
2022-10-14T09:03:58.940Z,88.7
2022-10-14T09:05:02.322Z,88.7
2022-10-14T09:06:06.518Z,88.7
2022-10-14T09:07:09.505Z,88.7
2022-10-14T09:08:12.573Z,88.7
2022-10-14T09:09:15.926Z,88.6
2022-10-14T09:10:18.650Z,88.5
2022-10-14T09:11:21.880Z,88.4
2022-10-14T09:12:26.440Z,88.4
2022-10-14T09:13:29.859Z,88.4
2022-10-14T09:14:32.360Z,88.5
2022-10-14T09:15:35.443Z,88.5
2022-10-14T09:16:38.320Z,88.5
2022-10-14T09:17:41.399Z,88.5
2022-10-14T09:18:44.631Z,88.6
2022-10-14T09:19:47.146Z,88.7
2022-10-14T09:20:50.375Z,88.7
2022-10-14T09:21:55.167Z,88.6
2022-10-14T09:22:58.536Z,88.7
2022-10-14T09:24:01.648Z,88.7
2022-10-14T09:25:05.448Z,88.7
2022-10-14T09:26:08.520Z,88.7
2022-10-14T09:27:11.962Z,88.7
2022-10-14T09:28:16.152Z,88.7
2022-10-14T09:29:18.789Z,88.8
2022-10-14T09:30:22.440Z,88.8
2022-10-14T09:31:25.954Z,88.7
2022-10-14T09:32:28.884Z,88.8
2022-10-14T09:33:32.261Z,88.9
2022-10-14T09:34:35.410Z,88.9
2022-10-14T09:35:38.489Z,89
2022-10-14T09:36:42.213Z,88.9
2022-10-14T09:37:46.236Z,89
2022-10-14T09:38:49.414Z,89
2022-10-14T09:39:52.860Z,89
2022-10-14T09:40:56.034Z,89
2022-10-14T09:41:58.819Z,89
2022-10-14T09:43:01.427Z,89
2022-10-14T09:44:04.414Z,89.1
2022-10-14T09:45:08.627Z,89.1
2022-10-14T09:46:12.112Z,89.1
2022-10-14T09:47:14.827Z,89.1
2022-10-14T09:48:17.553Z,89.1
2022-10-14T09:49:20.139Z,89.1
2022-10-14T09:50:23.888Z,89.1
2022-10-14T09:51:26.971Z,89.1
2022-10-14T09:52:30.459Z,89.2
2022-10-14T09:53:33.961Z,89.2
2022-10-14T09:54:36.524Z,89.2
2022-10-14T09:55:39.445Z,89.2
2022-10-14T09:56:43.221Z,89.2
2022-10-14T09:57:46.955Z,89.1
2022-10-14T09:58:49.828Z,89
2022-10-14T09:59:53.000Z,89
2022-10-14T10:00:55.888Z,89.1
2022-10-14T10:01:59.255Z,89.1
2022-10-14T10:03:02.146Z,89.1
2022-10-14T10:04:05.310Z,89.1
2022-10-14T10:05:08.459Z,89.1
2022-10-14T10:06:12.138Z,89.1
2022-10-14T10:07:15.508Z,89.3
2022-10-14T10:08:18.946Z,89.3
2022-10-14T10:09:23.117Z,89.3
2022-10-14T10:10:26.536Z,89.4
2022-10-14T10:11:29.414Z,89.3
2022-10-14T10:12:32.795Z,89.3
2022-10-14T10:13:36.225Z,89.4
2022-10-14T10:14:39.589Z,89.3
2022-10-14T10:15:42.375Z,89.2
2022-10-14T10:16:45.780Z,89.1
2022-10-14T10:17:49.040Z,89.1
2022-10-14T10:18:51.758Z,89
2022-10-14T10:19:55.167Z,88.9
2022-10-14T10:20:58.504Z,88.9
2022-10-14T10:22:01.844Z,88.7
2022-10-14T10:23:05.259Z,88.6
2022-10-14T10:24:08.150Z,88.7
2022-10-14T10:25:11.655Z,89
2022-10-14T10:26:15.029Z,88.8
2022-10-14T10:27:18.561Z,88.6
2022-10-14T10:28:21.908Z,88.3
2022-10-14T10:29:24.830Z,88
2022-10-14T10:30:27.560Z,87.5
2022-10-14T10:31:31.187Z,87.2
2022-10-14T10:32:34.711Z,87.2
2022-10-14T10:33:38.125Z,86.8
2022-10-14T10:34:41.568Z,85.9
2022-10-14T10:35:44.508Z,84.9
2022-10-14T10:36:47.655Z,84.2
2022-10-14T10:37:51.109Z,83.6
2022-10-14T10:38:54.129Z,82.5
2022-10-14T10:39:57.968Z,81.4
2022-10-14T10:41:01.872Z,81.7
2022-10-14T10:42:04.788Z,80.3
2022-10-14T10:43:07.983Z,80.2
2022-10-14T10:44:11.604Z,80.1
2022-10-14T10:45:14.805Z,80.1
2022-10-14T10:46:17.850Z,79.9
2022-10-14T10:47:21.205Z,79.5
2022-10-14T10:48:24.059Z,76.6
2022-10-14T10:49:27.419Z,76.9
2022-10-14T10:50:30.548Z,76.9
2022-10-14T10:51:33.854Z,77
2022-10-14T10:52:36.273Z,77.3
2022-10-14T10:53:39.693Z,77.6
2022-10-14T10:54:42.384Z,77.9
2022-10-14T10:55:45.763Z,76.6
2022-10-14T10:56:49.673Z,76
2022-10-14T10:57:53.077Z,76.2
2022-10-14T10:58:55.858Z,74.7
2022-10-14T10:59:59.055Z,75.1
2022-10-14T11:01:02.569Z,75.2
2022-10-14T11:02:05.082Z,74.1
2022-10-14T11:03:08.306Z,75.1
2022-10-14T11:04:10.616Z,72.7
2022-10-14T11:05:13.605Z,71
2022-10-14T11:06:15.823Z,69.8
2022-10-14T11:07:18.329Z,69.3
2022-10-14T11:08:21.891Z,69.3
2022-10-14T11:09:25.086Z,69.3
2022-10-14T11:10:28.711Z,68.4
2022-10-14T11:11:32.579Z,68.6
2022-10-14T11:12:36.283Z,67.8
2022-10-14T11:13:39.610Z,67.6
2022-10-14T11:14:42.298Z,67.5
2022-10-14T11:15:45.082Z,67.8
2022-10-14T11:16:47.583Z,67.6
2022-10-14T11:17:50.872Z,68
2022-10-14T11:18:53.844Z,68
2022-10-14T11:19:57.254Z,68.6
2022-10-14T11:21:00.100Z,69.3
2022-10-14T11:22:02.736Z,70
2022-10-14T11:23:05.586Z,69.4
2022-10-14T11:24:09.469Z,68.5
2022-10-14T11:25:12.400Z,68.7
2022-10-14T11:26:14.901Z,67.6
2022-10-14T11:27:26.095Z,68.2
2022-10-14T11:28:31.315Z,67.9
2022-10-14T11:29:35.058Z,68.2
2022-10-14T11:30:38.124Z,66.3
2022-10-14T11:31:41.579Z,68.6
2022-10-14T11:32:44.099Z,69.1
2022-10-14T11:33:46.813Z,68
2022-10-14T11:34:50.172Z,68.3
2022-10-14T11:35:53.392Z,69
2022-10-14T11:36:56.350Z,69.8
2022-10-14T11:37:58.610Z,69.7
2022-10-14T11:39:01.774Z,70.6
2022-10-14T11:40:05.469Z,70.9
2022-10-14T11:41:08.887Z,71
2022-10-14T11:42:11.490Z,69.3
2022-10-14T11:43:14.657Z,69.3
2022-10-14T11:44:18.683Z,68.4
2022-10-14T11:45:22.728Z,68.7
2022-10-14T11:46:26.176Z,68.2
2022-10-14T11:47:29.614Z,68.5
2022-10-14T11:48:32.584Z,68.6
2022-10-14T11:49:35.758Z,68.7
2022-10-14T11:50:39.096Z,68.3
2022-10-14T11:51:42.304Z,67.9
2022-10-14T11:52:46.301Z,67.3
2022-10-14T11:53:50.120Z,67.9
2022-10-14T11:54:53.318Z,68.4
2022-10-14T11:55:56.382Z,68.3
2022-10-14T11:56:59.629Z,68
2022-10-14T11:58:03.310Z,67.6
2022-10-14T11:59:06.415Z,67.9
2022-10-14T12:00:10.215Z,68.4
2022-10-14T12:01:13.399Z,65.7
2022-10-14T12:02:16.873Z,65.6
2022-10-14T12:03:20.547Z,66.8
2022-10-14T12:04:23.612Z,64.1
2022-10-14T12:05:27.252Z,64
2022-10-14T12:06:30.320Z,63.8
2022-10-14T12:07:33.778Z,64.5
2022-10-14T12:08:37.048Z,65.1
2022-10-14T12:09:40.414Z,65.3
2022-10-14T12:10:42.975Z,66.2
2022-10-14T12:11:46.395Z,66.6
2022-10-14T12:12:49.951Z,65.7
2022-10-14T12:13:53.020Z,66.3
2022-10-14T12:14:56.605Z,65.4
2022-10-14T12:16:00.791Z,65.7
2022-10-14T12:17:04.260Z,65.3
2022-10-14T12:18:07.339Z,64.4
2022-10-14T12:19:10.334Z,65
2022-10-14T12:20:13.896Z,65.4
2022-10-14T12:21:17.356Z,66.2
2022-10-14T12:22:22.402Z,65.4
2022-10-14T12:23:27.349Z,65.2
2022-10-14T12:24:29.785Z,65.7
2022-10-14T12:25:33.233Z,67
2022-10-14T12:26:36.949Z,67.1
2022-10-14T12:27:39.906Z,67.3
2022-10-14T12:28:43.740Z,66.9
2022-10-14T12:29:47.895Z,67.1
2022-10-14T12:30:50.786Z,67.6
2022-10-14T12:31:54.551Z,67.5
2022-10-14T12:32:57.146Z,68.9
2022-10-14T12:33:59.582Z,69.2
2022-10-14T12:35:03.304Z,69.7
2022-10-14T12:36:06.236Z,69.1
2022-10-14T12:37:09.381Z,67.9
2022-10-14T12:38:12.565Z,69
2022-10-14T12:39:15.431Z,68.7
2022-10-14T12:40:18.228Z,69.1
2022-10-14T12:41:21.043Z,69.3
2022-10-14T12:42:25.462Z,69.8
2022-10-14T12:43:28.639Z,71
2022-10-14T12:44:31.170Z,70.4
2022-10-14T12:45:34.141Z,71
2022-10-14T12:46:37.754Z,71
2022-10-14T12:47:41.330Z,70.5
2022-10-14T12:48:44.494Z,70.9
2022-10-14T12:49:47.104Z,71
2022-10-14T12:50:50.872Z,71.4
2022-10-14T12:51:53.630Z,71.7
2022-10-14T12:52:56.456Z,71.9
2022-10-14T12:53:59.908Z,72.4
2022-10-14T12:55:03.632Z,72.8
2022-10-14T12:56:07.058Z,73
2022-10-14T12:57:09.387Z,73.2
2022-10-14T12:58:12.834Z,72.7
2022-10-14T12:59:18.199Z,72.4
2022-10-14T13:00:21.298Z,71
2022-10-14T13:01:24.797Z,70.2
2022-10-14T13:02:28.008Z,70
2022-10-14T13:03:31.551Z,71.6
2022-10-14T13:04:33.878Z,70.7
2022-10-14T13:05:37.313Z,69.9
2022-10-14T13:06:40.669Z,68.5
2022-10-14T13:07:45.406Z,69.1
2022-10-14T13:08:50.073Z,67.1
2022-10-14T13:09:53.601Z,66.6
2022-10-14T13:10:56.740Z,66.4
2022-10-14T13:11:59.539Z,66.7
2022-10-14T13:13:02.667Z,68.1
2022-10-14T13:14:06.224Z,68.5
2022-10-14T13:15:09.560Z,67
2022-10-14T13:16:12.626Z,68.2
2022-10-14T13:17:17.144Z,69.1
2022-10-14T13:18:20.688Z,66.8
2022-10-14T13:19:24.465Z,65.9
2022-10-14T13:20:27.380Z,65.4
2022-10-14T13:21:30.758Z,66.5
2022-10-14T13:22:35.809Z,69.7
2022-10-14T13:23:38.883Z,70.5
2022-10-14T13:24:41.486Z,70.9
2022-10-14T13:25:44.704Z,69.3
2022-10-14T13:26:47.775Z,66.6
2022-10-14T13:27:50.860Z,66.5
2022-10-14T13:28:55.033Z,66.8
2022-10-14T13:29:58.512Z,68.7
2022-10-14T13:31:01.745Z,67.9
2022-10-14T13:32:05.339Z,67.4
2022-10-14T13:33:08.772Z,68
2022-10-14T13:34:12.698Z,68.8
2022-10-14T13:35:16.750Z,66.7
2022-10-14T13:36:19.939Z,67.9
2022-10-14T13:37:23.010Z,69.4
2022-10-14T13:38:25.818Z,66.4
2022-10-14T13:39:28.929Z,66.8
2022-10-14T13:40:30.990Z,66.5
2022-10-14T13:41:34.086Z,66
2022-10-14T13:42:37.202Z,66.8
2022-10-14T13:43:40.009Z,67.4
2022-10-14T13:44:43.172Z,66.8
2022-10-14T13:45:46.608Z,66
2022-10-14T13:46:49.430Z,66
2022-10-14T13:47:52.617Z,64.5
2022-10-14T13:48:55.797Z,66.4
2022-10-14T13:49:58.851Z,65.4
2022-10-14T13:51:37.902Z,64.8
2022-10-14T13:52:40.961Z,66.3
2022-10-14T13:53:45.451Z,65.3
2022-10-14T13:54:48.835Z,64.2
2022-10-14T13:55:55.670Z,65.4
2022-10-14T13:58:13.986Z,65.1
2022-10-14T14:00:41.744Z,63.1
2022-10-14T14:01:45.904Z,64.2
2022-10-14T14:03:03.750Z,65.8
2022-10-14T14:04:06.546Z,66.1
2022-10-14T14:05:09.992Z,67
2022-10-14T14:06:14.237Z,67.7
2022-10-14T14:08:41.344Z,68.8
2022-10-14T14:09:47.640Z,67.6
2022-10-14T14:11:19.456Z,67.9
2022-10-14T14:12:22.036Z,67.8
2022-10-14T14:13:24.919Z,65.4
2022-10-14T14:14:27.367Z,65